Current Weather

Siirt

Siirt, Turkey (LTCL)

Report from: Thursday, August 18, 2022 12:50 PM UTC
Current time: Friday, August 19, 2022 4:11 AM UTC

Nearby weather
Weather history
Weather forecast

Temperature41.0°C (105.8°F)
Heat index37.6°C (99.7°F)
Dew point-1.0°C (30.2°F)
Winds 5 kts (2.6 m/s, 5.8 mph) Vrb
Winds variableWinds variable from East (80°) to West-Southwest (240°)
Clouds Sky clear
Altimeter29.62 in.Hg (1003 mB)
Relative humidity7 %
Density altitude3,350 ft. (1,021 m)
Remarks Ceiling and visibility OK
Flight conditions Visual Meteorological Conditions
Raw dataLTCL 181250Z 16005KT 080V240 CAVOK 41/M01 Q1003
An unhandled exception has occurred. See browser dev tools for details. Reload 🗙